createdAt,value
2023-02-23T00:01:51.499Z,90.57
2023-02-23T00:04:18.736Z,90.90
2023-02-23T00:06:45.671Z,90.59
2023-02-23T00:09:22.867Z,90.55
2023-02-23T00:11:57.184Z,90.52
2023-02-23T00:14:29.092Z,90.94
2023-02-23T00:16:56.421Z,90.74
2023-02-23T00:19:24.739Z,91.06
2023-02-23T00:21:52.092Z,91.25
2023-02-23T00:24:20.424Z,91.16
2023-02-23T00:26:51.078Z,91.38
2023-02-23T00:29:21.002Z,92.22
2023-02-23T00:31:49.250Z,92.21
2023-02-23T00:34:20.978Z,92.11
2023-02-23T00:36:55.109Z,92.31
2023-02-23T00:39:26.431Z,92.41
2023-02-23T00:41:55.341Z,92.31
2023-02-23T00:44:23.698Z,92.69
2023-02-23T00:46:51.700Z,92.68
2023-02-23T00:49:20.360Z,92.72
2023-02-23T00:51:47.583Z,92.67
2023-02-23T00:54:15.852Z,93.14
2023-02-23T00:56:42.605Z,93.49
2023-02-23T00:59:10.080Z,93.23
2023-02-23T01:01:38.394Z,93.66
2023-02-23T01:04:07.106Z,93.73
2023-02-23T01:06:37.245Z,94.70
2023-02-23T01:09:11.493Z,94.93
2023-02-23T01:11:38.607Z,95.06
2023-02-23T01:14:05.211Z,95.88
2023-02-23T01:16:33.747Z,95.60
2023-02-23T01:19:03.515Z,96.00
2023-02-23T01:21:36.259Z,95.87
2023-02-23T01:24:04.160Z,94.58
2023-02-23T01:26:36.249Z,94.71
2023-02-23T01:29:08.811Z,93.92
2023-02-23T01:31:39.321Z,94.54
2023-02-23T01:34:07.131Z,95.29
2023-02-23T01:36:38.935Z,95.81
2023-02-23T01:39:08.549Z,94.14
2023-02-23T01:41:36.727Z,94.89
2023-02-23T01:44:07.903Z,94.94
2023-02-23T01:46:39.105Z,95.51
2023-02-23T01:49:10.515Z,95.48
2023-02-23T01:51:43.004Z,95.05
2023-02-23T01:54:16.036Z,96.13
2023-02-23T01:56:49.156Z,95.30
2023-02-23T01:59:17.756Z,95.84
2023-02-23T02:01:45.172Z,95.49
2023-02-23T02:04:16.806Z,95.90
2023-02-23T02:06:45.797Z,94.75
2023-02-23T02:09:19.470Z,95.72
2023-02-23T02:11:54.053Z,96.64
2023-02-23T02:14:30.762Z,97.26
2023-02-23T02:17:25.425Z,97.57
2023-02-23T02:20:14.786Z,97.82
2023-02-23T02:23:08.374Z,97.65
2023-02-23T02:26:05.141Z,96.46
2023-02-23T02:28:50.423Z,97.39
2023-02-23T02:32:01.401Z,97.72
2023-02-23T02:35:11.421Z,98.08
2023-02-23T02:37:48.563Z,98.37
2023-02-23T02:40:28.422Z,98.47
2023-02-23T02:43:13.032Z,97.12
2023-02-23T02:45:43.072Z,97.67
2023-02-23T02:48:19.615Z,98.45
2023-02-23T02:50:55.575Z,97.57
2023-02-23T02:53:55.816Z,98.66
2023-02-23T02:56:26.371Z,98.92
2023-02-23T02:58:54.704Z,97.82
2023-02-23T03:01:40.196Z,97.28
2023-02-23T03:04:55.329Z,99.03
2023-02-23T03:07:50.267Z,99.36
2023-02-23T03:10:42.599Z,99.03
2023-02-23T03:13:43.236Z,99.30
2023-02-23T03:17:08.320Z,98.55
2023-02-23T03:20:04.175Z,99.34
2023-02-23T03:22:56.561Z,99.77
2023-02-23T03:25:47.877Z,99.73
2023-02-23T03:28:48.292Z,100.00
2023-02-23T03:31:45.739Z,100.00
2023-02-23T03:34:38.616Z,100.00
2023-02-23T03:37:33.483Z,100.00
2023-02-23T03:40:26.963Z,100.00
2023-02-23T03:43:16.340Z,100.00
2023-02-23T03:46:04.258Z,100.00
2023-02-23T03:48:55.058Z,100.00
2023-02-23T03:51:43.947Z,100.00
2023-02-23T03:54:37.019Z,100.00
2023-02-23T03:57:26.907Z,100.00
2023-02-23T04:00:18.387Z,100.00
2023-02-23T04:03:08.747Z,100.00
2023-02-23T04:05:58.448Z,100.00
2023-02-23T04:08:52.123Z,100.00
2023-02-23T04:12:04.341Z,100.00
2023-02-23T04:14:41.881Z,99.66
2023-02-23T04:17:10.362Z,100.00
2023-02-23T04:19:37.210Z,100.00
2023-02-23T04:22:03.856Z,100.00
2023-02-23T04:24:30.469Z,100.00
2023-02-23T04:26:57.074Z,100.00
2023-02-23T04:29:24.120Z,100.00
2023-02-23T04:31:50.858Z,100.00
2023-02-23T04:34:17.589Z,100.00
2023-02-23T04:36:44.164Z,100.00
2023-02-23T04:39:10.781Z,100.00
2023-02-23T04:41:37.503Z,100.00
2023-02-23T04:44:04.864Z,100.00
2023-02-23T04:46:31.625Z,100.00
2023-02-23T04:48:58.273Z,100.00
2023-02-23T04:51:30.079Z,100.00
2023-02-23T04:53:56.637Z,100.00
2023-02-23T04:56:23.288Z,100.00
2023-02-23T04:58:50.400Z,100.00
2023-02-23T05:01:17.843Z,100.00
2023-02-23T05:03:44.652Z,100.00
2023-02-23T05:06:12.669Z,100.00
2023-02-23T05:08:39.417Z,100.00
2023-02-23T05:11:07.310Z,100.00
2023-02-23T05:13:34.361Z,100.00
2023-02-23T05:16:01.130Z,100.00
2023-02-23T05:18:27.811Z,100.00
2023-02-23T05:21:02.174Z,100.00
2023-02-23T05:23:28.816Z,100.00
2023-02-23T05:26:01.267Z,100.00
2023-02-23T05:28:27.924Z,100.00
2023-02-23T05:30:54.684Z,100.00
2023-02-23T05:33:21.805Z,100.00
2023-02-23T05:35:48.948Z,100.00
2023-02-23T05:38:15.622Z,100.00
2023-02-23T05:40:42.309Z,100.00
2023-02-23T05:43:08.968Z,100.00
2023-02-23T05:45:40.359Z,100.00
2023-02-23T05:48:07.793Z,100.00
2023-02-23T05:50:34.578Z,100.00
2023-02-23T05:53:01.252Z,100.00
2023-02-23T05:55:28.242Z,100.00
2023-02-23T05:57:55.436Z,100.00
2023-02-23T06:00:22.470Z,100.00
2023-02-23T06:02:52.282Z,100.00
2023-02-23T06:05:19.413Z,100.00
2023-02-23T06:07:46.876Z,100.00
2023-02-23T06:10:14.390Z,100.00
2023-02-23T06:12:41.122Z,100.00
2023-02-23T06:15:08.429Z,100.00
2023-02-23T06:17:35.844Z,100.00
2023-02-23T06:20:04.853Z,100.00
2023-02-23T06:22:31.573Z,100.00
2023-02-23T06:24:58.366Z,100.00
2023-02-23T06:27:26.217Z,100.00
2023-02-23T06:29:52.902Z,100.00
2023-02-23T06:32:19.615Z,100.00
2023-02-23T06:34:51.078Z,100.00
2023-02-23T06:37:17.819Z,100.00
2023-02-23T06:39:44.719Z,100.00
2023-02-23T06:42:11.300Z,100.00
2023-02-23T06:44:38.049Z,100.00
2023-02-23T06:47:06.060Z,100.00
2023-02-23T06:49:33.051Z,100.00
2023-02-23T06:52:00.123Z,100.00
2023-02-23T06:54:26.781Z,100.00
2023-02-23T06:56:56.594Z,100.00
2023-02-23T06:59:24.236Z,100.00
2023-02-23T07:01:51.075Z,100.00
2023-02-23T07:04:17.924Z,100.00
2023-02-23T07:06:44.638Z,100.00
2023-02-23T07:09:11.347Z,100.00
2023-02-23T07:11:38.060Z,100.00
2023-02-23T07:14:04.647Z,100.00
2023-02-23T07:16:32.121Z,100.00
2023-02-23T07:18:58.990Z,100.00
2023-02-23T07:21:25.630Z,100.00
2023-02-23T07:23:52.219Z,100.00
2023-02-23T07:26:18.867Z,100.00
2023-02-23T07:28:45.604Z,100.00
2023-02-23T07:31:12.315Z,100.00
2023-02-23T07:33:38.965Z,100.00
2023-02-23T07:36:05.882Z,100.00
2023-02-23T07:38:32.781Z,100.00
2023-02-23T07:40:59.653Z,100.00
2023-02-23T07:43:26.290Z,100.00
2023-02-23T07:45:53.005Z,100.00
2023-02-23T07:48:20.643Z,100.00
2023-02-23T07:50:47.917Z,100.00
2023-02-23T07:53:15.185Z,100.00
2023-02-23T07:55:41.847Z,100.00
2023-02-23T07:58:08.997Z,100.00
2023-02-23T08:00:36.912Z,100.00
2023-02-23T08:03:03.603Z,100.00
2023-02-23T08:05:30.273Z,100.00
2023-02-23T08:07:58.511Z,100.00
2023-02-23T08:10:25.735Z,100.00
2023-02-23T08:12:52.589Z,100.00
2023-02-23T08:15:19.332Z,100.00
2023-02-23T08:17:45.966Z,100.00
2023-02-23T08:20:12.726Z,100.00
2023-02-23T08:22:48.871Z,100.00
2023-02-23T08:25:17.409Z,100.00
2023-02-23T08:27:44.050Z,100.00
2023-02-23T08:30:11.535Z,100.00
2023-02-23T08:32:38.315Z,100.00
2023-02-23T08:35:05.630Z,100.00
2023-02-23T08:37:32.721Z,100.00
2023-02-23T08:40:00.606Z,100.00
2023-02-23T08:42:27.813Z,100.00
2023-02-23T08:44:54.564Z,100.00
2023-02-23T08:47:23.379Z,100.00
2023-02-23T08:49:51.014Z,100.00
2023-02-23T08:52:17.944Z,100.00
2023-02-23T08:54:44.591Z,99.61
2023-02-23T08:57:12.620Z,100.00
2023-02-23T08:59:41.162Z,100.00
2023-02-23T09:02:12.792Z,98.39
2023-02-23T09:04:41.888Z,96.89
2023-02-23T09:07:13.042Z,93.00
2023-02-23T09:09:39.783Z,90.27
2023-02-23T09:12:06.519Z,89.70
2023-02-23T09:14:33.451Z,88.61
2023-02-23T09:17:00.098Z,89.44
2023-02-23T09:19:27.529Z,90.02
2023-02-23T09:21:54.327Z,89.19
2023-02-23T09:24:21.723Z,88.60
2023-02-23T09:26:49.632Z,87.91
2023-02-23T09:29:16.326Z,85.13
2023-02-23T09:31:43.739Z,83.54
2023-02-23T09:34:12.583Z,80.93
2023-02-23T09:36:39.349Z,76.84
2023-02-23T09:39:05.954Z,73.14
2023-02-23T09:41:51.874Z,74.87
2023-02-23T09:44:51.240Z,73.61
2023-02-23T09:47:46.113Z,72.20
2023-02-23T09:50:22.546Z,72.01
2023-02-23T09:52:58.173Z,72.40
2023-02-23T09:55:26.420Z,72.55
2023-02-23T09:57:54.049Z,72.53
2023-02-23T10:00:27.396Z,72.66
2023-02-23T10:03:08.355Z,74.70
2023-02-23T10:05:43.873Z,76.47
2023-02-23T10:08:28.762Z,76.87
2023-02-23T10:11:02.899Z,76.95
2023-02-23T10:13:51.340Z,76.75
2023-02-23T10:16:38.550Z,76.32
2023-02-23T10:19:29.273Z,76.60
2023-02-23T10:22:03.333Z,76.84
2023-02-23T10:24:36.947Z,76.90
2023-02-23T10:27:10.284Z,77.96
2023-02-23T10:29:45.600Z,77.32
2023-02-23T10:32:22.863Z,77.87
2023-02-23T10:34:54.615Z,77.50
2023-02-23T10:37:21.604Z,77.62
2023-02-23T10:39:49.823Z,77.27
2023-02-23T10:42:21.836Z,75.54
2023-02-23T10:44:50.020Z,73.82
2023-02-23T10:47:22.365Z,74.33
2023-02-23T10:49:52.283Z,74.41
2023-02-23T10:52:27.523Z,74.68
2023-02-23T10:54:54.228Z,74.16
2023-02-23T10:57:27.796Z,74.23
2023-02-23T11:00:19.377Z,74.74
2023-02-23T11:02:47.686Z,73.02
2023-02-23T11:05:50.437Z,70.77
2023-02-23T11:08:25.069Z,68.67
2023-02-23T11:11:02.028Z,66.95
2023-02-23T11:13:36.017Z,66.28
2023-02-23T11:16:07.214Z,67.83
2023-02-23T11:18:34.019Z,66.73
2023-02-23T11:21:00.810Z,66.64
2023-02-23T11:23:35.695Z,67.56
2023-02-23T11:26:06.193Z,67.28
2023-02-23T11:28:43.297Z,67.58
2023-02-23T11:31:20.425Z,68.04
2023-02-23T11:33:48.302Z,68.52
2023-02-23T11:36:17.988Z,68.21
2023-02-23T11:38:47.320Z,67.30
2023-02-23T11:41:23.305Z,66.88
2023-02-23T11:44:02.827Z,66.96
2023-02-23T11:46:33.344Z,66.53
2023-02-23T11:49:14.695Z,65.46
2023-02-23T11:51:48.972Z,64.86
2023-02-23T11:54:27.369Z,64.18
2023-02-23T11:56:58.068Z,64.67
2023-02-23T11:59:45.175Z,63.62
2023-02-23T12:02:23.027Z,63.40
2023-02-23T12:04:53.964Z,63.36
2023-02-23T12:07:34.811Z,63.52
2023-02-23T12:10:12.734Z,62.87
2023-02-23T12:12:50.212Z,62.49
2023-02-23T12:15:48.410Z,63.13
2023-02-23T12:18:20.980Z,64.28
2023-02-23T12:20:50.646Z,65.25
2023-02-23T12:23:22.359Z,65.14
2023-02-23T12:26:00.549Z,65.69
2023-02-23T12:28:41.502Z,65.96
2023-02-23T12:31:25.971Z,66.33
2023-02-23T12:33:59.043Z,67.08
2023-02-23T12:36:35.348Z,67.17
2023-02-23T12:39:40.000Z,67.31
2023-02-23T12:42:15.674Z,69.10
2023-02-23T12:45:02.835Z,67.72
2023-02-23T12:47:37.046Z,68.04
2023-02-23T12:50:13.506Z,68.20
2023-02-23T12:52:50.953Z,67.69
2023-02-23T12:55:29.167Z,68.07
2023-02-23T12:58:08.015Z,69.73
2023-02-23T13:01:01.360Z,70.27
2023-02-23T13:03:50.005Z,69.95
2023-02-23T13:06:50.458Z,68.29
2023-02-23T13:09:51.497Z,67.61
2023-02-23T13:12:36.230Z,68.02
2023-02-23T13:15:34.362Z,68.16
2023-02-23T13:18:24.481Z,68.36
2023-02-23T13:21:39.493Z,68.45
2023-02-23T13:24:14.328Z,68.23
2023-02-23T13:27:01.732Z,67.85
2023-02-23T13:29:37.866Z,67.24
2023-02-23T13:32:09.808Z,67.13
2023-02-23T13:34:44.208Z,68.39
2023-02-23T13:37:14.811Z,67.79
2023-02-23T13:39:47.766Z,68.25
2023-02-23T13:42:40.847Z,67.96
2023-02-23T13:45:23.098Z,68.34
2023-02-23T13:47:52.884Z,67.90
2023-02-23T13:50:29.846Z,68.19
2023-02-23T13:53:04.774Z,67.30
2023-02-23T13:55:49.635Z,67.03
2023-02-23T13:58:28.862Z,66.92
2023-02-23T14:01:16.513Z,66.21
2023-02-23T14:04:04.196Z,66.96
2023-02-23T14:06:34.150Z,67.75
2023-02-23T14:09:09.612Z,67.52
2023-02-23T14:11:53.552Z,67.87
2023-02-23T14:14:32.849Z,67.70
2023-02-23T14:17:14.733Z,67.79
2023-02-23T14:19:43.137Z,67.59
2023-02-23T14:22:18.436Z,67.61
2023-02-23T14:24:45.561Z,68.01
2023-02-23T14:27:42.574Z,68.45
2023-02-23T14:30:12.235Z,67.79
2023-02-23T14:32:42.004Z,67.60
2023-02-23T14:35:33.596Z,67.41
2023-02-23T14:38:24.853Z,67.35
2023-02-23T14:40:54.637Z,67.04
2023-02-23T14:43:38.154Z,67.39
2023-02-23T14:46:13.139Z,67.32
2023-02-23T14:48:44.632Z,67.43
2023-02-23T14:51:24.850Z,67.58
2023-02-23T14:53:53.717Z,67.47
2023-02-23T14:56:24.686Z,67.88
2023-02-23T14:58:54.663Z,67.95
2023-02-23T15:01:39.517Z,68.21
2023-02-23T15:04:16.365Z,68.12
2023-02-23T15:06:46.871Z,68.91
2023-02-23T15:09:30.102Z,68.56
2023-02-23T15:11:59.240Z,68.25
2023-02-23T15:14:28.166Z,68.31
2023-02-23T15:16:56.606Z,67.19
2023-02-23T15:19:33.523Z,66.91
2023-02-23T15:22:02.057Z,67.19
2023-02-23T15:24:40.763Z,67.71
2023-02-23T15:27:16.568Z,66.64
2023-02-23T15:29:43.431Z,67.59
2023-02-23T15:32:16.807Z,67.64
2023-02-23T15:34:43.645Z,68.01
2023-02-23T15:37:20.168Z,68.22
2023-02-23T15:39:56.899Z,67.39
2023-02-23T15:42:36.280Z,66.88
2023-02-23T15:45:11.608Z,67.32
2023-02-23T15:47:38.408Z,67.62
2023-02-23T15:50:16.495Z,67.56
2023-02-23T15:52:50.307Z,67.11
2023-02-23T15:55:29.892Z,66.85
2023-02-23T15:57:59.076Z,66.23
2023-02-23T16:00:44.826Z,66.30
2023-02-23T16:03:30.561Z,66.38
2023-02-23T16:06:19.171Z,66.25
2023-02-23T16:09:22.177Z,66.86
2023-02-23T16:12:08.933Z,67.09
2023-02-23T16:14:45.053Z,67.35
2023-02-23T16:17:24.216Z,67.46
2023-02-23T16:19:51.395Z,67.69
2023-02-23T16:22:27.038Z,67.69
2023-02-23T16:25:00.102Z,67.82
2023-02-23T16:27:28.639Z,68.16
2023-02-23T16:30:04.662Z,68.33
2023-02-23T16:32:37.762Z,68.14
2023-02-23T16:35:19.642Z,68.46
2023-02-23T16:38:01.059Z,68.02
2023-02-23T16:40:28.521Z,68.72
2023-02-23T16:42:59.566Z,68.57
2023-02-23T16:45:27.251Z,68.78
2023-02-23T16:47:53.962Z,68.51
2023-02-23T16:50:24.376Z,69.36
2023-02-23T16:52:53.088Z,69.74
2023-02-23T16:55:26.000Z,69.64
2023-02-23T16:58:03.793Z,70.10
2023-02-23T17:00:33.402Z,70.75
2023-02-23T17:03:01.017Z,70.34
2023-02-23T17:05:28.718Z,70.94
2023-02-23T17:07:57.756Z,71.08
2023-02-23T17:10:33.332Z,71.35
2023-02-23T17:13:05.727Z,71.30
2023-02-23T17:15:36.556Z,71.71
2023-02-23T17:18:05.206Z,71.29
2023-02-23T17:20:32.665Z,71.05
2023-02-23T17:23:01.374Z,70.99
2023-02-23T17:25:28.719Z,71.86
2023-02-23T17:27:57.259Z,71.45
2023-02-23T17:30:25.426Z,72.21
2023-02-23T17:32:54.549Z,71.87
2023-02-23T17:35:21.991Z,72.23
2023-02-23T17:37:49.000Z,71.88
2023-02-23T17:40:28.902Z,72.01
2023-02-23T17:42:57.738Z,71.91
2023-02-23T17:45:24.846Z,71.56
2023-02-23T17:47:51.767Z,71.67
2023-02-23T17:50:22.555Z,71.83
2023-02-23T17:52:50.161Z,72.27
2023-02-23T17:55:17.765Z,72.50
2023-02-23T17:57:45.214Z,72.82
2023-02-23T18:00:13.900Z,73.00
2023-02-23T18:02:42.801Z,72.91
2023-02-23T18:05:11.299Z,73.36
2023-02-23T18:07:38.379Z,73.27
2023-02-23T18:10:06.242Z,73.90
2023-02-23T18:12:34.294Z,73.37
2023-02-23T18:15:01.359Z,73.07
2023-02-23T18:17:28.522Z,72.88
2023-02-23T18:19:55.403Z,73.01
2023-02-23T18:22:22.065Z,72.85
2023-02-23T18:24:48.679Z,72.71
2023-02-23T18:27:15.441Z,72.25
2023-02-23T18:29:42.119Z,71.82
2023-02-23T18:32:08.955Z,72.38
2023-02-23T18:34:36.334Z,72.59
2023-02-23T18:37:04.114Z,72.20
2023-02-23T18:39:32.740Z,71.86
2023-02-23T18:42:00.545Z,72.44
2023-02-23T18:44:27.566Z,72.51
2023-02-23T18:46:54.845Z,73.15
2023-02-23T18:49:23.922Z,73.94
2023-02-23T18:51:51.375Z,73.66
2023-02-23T18:54:18.590Z,73.24
2023-02-23T18:56:47.427Z,74.07
2023-02-23T18:59:16.159Z,74.25
2023-02-23T19:01:45.358Z,74.27
2023-02-23T19:04:13.176Z,74.76
2023-02-23T19:06:43.707Z,74.89
2023-02-23T19:09:12.423Z,74.56
2023-02-23T19:11:40.718Z,74.49
2023-02-23T19:14:13.393Z,74.38
2023-02-23T19:16:41.174Z,74.51
2023-02-23T19:19:08.871Z,74.71
2023-02-23T19:21:36.395Z,75.20
2023-02-23T19:24:04.856Z,75.09
2023-02-23T19:26:33.652Z,75.27
2023-02-23T19:29:00.524Z,75.12
2023-02-23T19:31:28.351Z,75.47
2023-02-23T19:33:57.032Z,75.84
2023-02-23T19:36:29.648Z,75.53
2023-02-23T19:39:05.661Z,75.68
2023-02-23T19:41:33.841Z,76.45
2023-02-23T19:44:00.951Z,76.33
2023-02-23T19:46:27.982Z,75.66
2023-02-23T19:48:56.053Z,76.69
2023-02-23T19:51:23.805Z,75.76
2023-02-23T19:53:53.623Z,75.47
2023-02-23T19:56:22.200Z,75.46
2023-02-23T19:58:49.346Z,75.02
2023-02-23T20:01:18.812Z,75.78
2023-02-23T20:03:49.453Z,75.59
2023-02-23T20:06:17.650Z,75.21
2023-02-23T20:08:45.318Z,75.50
2023-02-23T20:11:12.165Z,76.14
2023-02-23T20:13:39.154Z,76.81
2023-02-23T20:16:11.817Z,77.17
2023-02-23T20:18:40.123Z,76.86
2023-02-23T20:21:18.492Z,76.97
2023-02-23T20:23:47.220Z,76.89
2023-02-23T20:26:19.906Z,76.68
2023-02-23T20:28:46.936Z,76.20
2023-02-23T20:31:18.088Z,75.60
2023-02-23T20:33:44.927Z,75.52
2023-02-23T20:36:14.705Z,76.38
2023-02-23T20:38:42.244Z,76.19
2023-02-23T20:41:08.985Z,76.71
2023-02-23T20:43:37.619Z,76.56
2023-02-23T20:46:04.840Z,76.18
2023-02-23T20:48:34.477Z,76.43
2023-02-23T20:51:01.820Z,76.34
2023-02-23T20:53:29.826Z,76.66
2023-02-23T20:55:56.797Z,76.35
2023-02-23T20:58:24.910Z,76.35
2023-02-23T21:00:56.962Z,76.10
2023-02-23T21:03:25.258Z,76.45
2023-02-23T21:05:52.557Z,76.53
2023-02-23T21:08:19.884Z,77.05
2023-02-23T21:10:48.666Z,76.23
2023-02-23T21:13:16.633Z,76.49
2023-02-23T21:15:44.705Z,76.42
2023-02-23T21:18:11.787Z,76.45
2023-02-23T21:20:39.507Z,76.45
2023-02-23T21:23:06.377Z,76.54
2023-02-23T21:25:33.158Z,75.80
2023-02-23T21:28:02.722Z,76.21
2023-02-23T21:30:30.061Z,76.42
2023-02-23T21:32:57.794Z,76.39
2023-02-23T21:35:24.732Z,76.67
2023-02-23T21:37:51.834Z,77.27
2023-02-23T21:40:20.863Z,78.07
2023-02-23T21:42:48.084Z,77.26
2023-02-23T21:45:15.282Z,76.91
2023-02-23T21:47:44.658Z,76.95
2023-02-23T21:50:15.560Z,76.84
2023-02-23T21:52:43.884Z,77.08
2023-02-23T21:55:21.442Z,77.45
2023-02-23T21:57:49.228Z,77.13
2023-02-23T22:00:16.364Z,77.92
2023-02-23T22:02:46.510Z,77.56
2023-02-23T22:05:15.486Z,78.04
2023-02-23T22:07:48.085Z,77.58
2023-02-23T22:10:14.955Z,77.78
2023-02-23T22:12:41.761Z,78.47
2023-02-23T22:15:10.238Z,78.99
2023-02-23T22:17:38.578Z,79.84
2023-02-23T22:20:07.169Z,79.92
2023-02-23T22:22:37.112Z,79.31
2023-02-23T22:25:04.443Z,79.62
2023-02-23T22:27:31.817Z,78.83
2023-02-23T22:30:01.846Z,79.02
2023-02-23T22:32:33.375Z,79.36
2023-02-23T22:35:00.950Z,79.88
2023-02-23T22:37:31.852Z,79.24
2023-02-23T22:40:01.712Z,79.26
2023-02-23T22:42:30.307Z,79.51
2023-02-23T22:44:57.111Z,79.81
2023-02-23T22:47:24.300Z,80.45
2023-02-23T22:49:51.092Z,80.73
2023-02-23T22:52:17.775Z,80.88
2023-02-23T22:54:45.649Z,79.69
2023-02-23T22:57:13.168Z,80.00
2023-02-23T22:59:39.856Z,79.03
2023-02-23T23:02:06.725Z,79.13
2023-02-23T23:04:34.427Z,78.57
2023-02-23T23:07:01.601Z,78.62
2023-02-23T23:09:28.382Z,78.65
2023-02-23T23:11:56.599Z,78.15
2023-02-23T23:14:23.593Z,78.48
2023-02-23T23:16:50.290Z,78.85
2023-02-23T23:19:23.679Z,78.33
2023-02-23T23:21:56.132Z,78.63
2023-02-23T23:24:24.431Z,78.57
2023-02-23T23:26:55.439Z,77.00
2023-02-23T23:29:23.592Z,77.29
2023-02-23T23:31:51.639Z,77.16
2023-02-23T23:34:21.605Z,76.94
2023-02-23T23:36:49.784Z,77.54
2023-02-23T23:39:18.245Z,77.91
2023-02-23T23:41:47.804Z,76.83
2023-02-23T23:44:17.261Z,76.97
2023-02-23T23:46:45.688Z,75.99
2023-02-23T23:49:18.384Z,75.80
2023-02-23T23:51:50.159Z,76.56
2023-02-23T23:54:23.500Z,76.84
2023-02-23T23:56:50.721Z,76.47
2023-02-23T23:59:20.261Z,75.37
